Time;durP1;ratioP1;P1;durP2;ratioP2;P2;SDS_P1;SDS_P2;PMS_P1;PMS_P2;Temp;Humidity;BMP_temperature;BMP_pressure;BME280_temperature;BME280_humidity;BME280_pressure;Samples;Min_cycle;Max_cycle;Signal;HPM_P1;HPM_P2
2022/02/18 00:01:07;;;;;;;6.80;3.65;;;;;;;8.95;63.98;94317.38;5046377;28;20045;-47
2022/02/18 00:03:37;;;;;;;7.38;3.38;;;;;;;8.87;64.91;94329.94;5048282;28;20086;-47
2022/02/18 00:06:05;;;;;;;9.30;4.25;;;;;;;8.70;65.82;94335.09;5049698;28;20447;-47
2022/02/18 00:08:32;;;;;;;10.25;5.13;;;;;;;8.56;66.15;94334.56;5045642;28;20041;-46
2022/02/18 00:10:59;;;;;;;13.02;4.03;;;;;;;8.45;66.89;94332.78;5046234;28;20053;-51
2022/02/18 00:13:26;;;;;;;12.23;4.03;;;;;;;8.34;67.48;94348.13;5047110;28;20051;-48
2022/02/18 00:15:53;;;;;;;8.63;3.58;;;;;;;8.30;67.59;94351.38;5051704;28;20064;-49
2022/02/18 00:18:19;;;;;;;8.95;3.95;;;;;;;8.25;67.82;94333.91;5044997;28;20499;-48
2022/02/18 00:20:46;;;;;;;7.15;4.13;;;;;;;8.21;67.91;94336.19;5045534;28;20053;-48
2022/02/18 00:23:13;;;;;;;7.30;3.72;;;;;;;8.20;67.82;94326.81;5049384;28;20105;-47
2022/02/18 00:25:40;;;;;;;6.68;3.28;;;;;;;8.15;67.98;94342.25;5045240;28;20056;-48
2022/02/18 00:28:07;;;;;;;7.28;3.55;;;;;;;7.99;68.50;94329.97;5045314;28;20123;-48
2022/02/18 00:30:34;;;;;;;7.45;3.50;;;;;;;8.04;68.33;94337.88;5050387;28;20094;-48
2022/02/18 00:33:01;;;;;;;7.60;3.40;;;;;;;8.02;68.27;94335.50;5059811;28;20045;-46
2022/02/18 00:35:27;;;;;;;9.60;3.60;;;;;;;7.99;68.31;94335.16;5043045;28;20484;-47
2022/02/18 00:37:54;;;;;;;7.45;3.28;;;;;;;7.96;68.62;94330.44;5043931;28;20073;-47
2022/02/18 00:40:24;;;;;;;8.65;3.95;;;;;;;7.87;68.62;94332.59;5046792;28;20110;-47
2022/02/18 00:42:53;;;;;;;11.07;3.85;;;;;;;7.83;68.70;94337.44;5044224;28;20036;-47
2022/02/18 00:45:20;;;;;;;9.80;4.38;;;;;;;7.84;68.76;94328.63;5045972;28;20060;-47
2022/02/18 00:47:47;;;;;;;12.65;4.63;;;;;;;7.81;68.72;94318.72;5052488;28;20106;-48
2022/02/18 00:50:14;;;;;;;11.60;6.93;;;;;;;7.78;69.11;94328.75;5044832;28;20167;-47
2022/02/18 00:52:40;;;;;;;10.52;4.45;;;;;;;7.72;69.55;94340.03;5051774;28;20045;-50
2022/02/18 00:55:08;;;;;;;9.15;3.72;;;;;;;7.66;69.65;94352.84;5044680;28;20037;-47
2022/02/18 00:57:37;;;;;;;7.68;3.58;;;;;;;7.61;69.82;94362.31;5046171;28;20052;-47
2022/02/18 01:00:06;;;;;;;8.13;3.00;;;;;;;7.63;69.01;94362.88;5044561;28;20078;-47
2022/02/18 01:02:33;;;;;;;7.05;2.63;;;;;;;7.64;68.83;94372.25;5045271;28;20399;-48
2022/02/18 01:05:03;;;;;;;6.55;2.85;;;;;;;7.66;68.63;94372.81;5044709;28;20172;-47
2022/02/18 01:07:30;;;;;;;5.10;2.55;;;;;;;7.68;68.72;94381.16;5047401;28;20041;-49
2022/02/18 01:09:56;;;;;;;5.05;2.53;;;;;;;7.69;68.01;94366.38;5043942;28;20408;-48
2022/02/18 01:12:23;;;;;;;4.00;2.08;;;;;;;7.64;67.78;94360.06;5044973;28;20098;-48
2022/02/18 01:14:51;;;;;;;13.77;3.80;;;;;;;7.72;67.72;94371.91;5043771;28;20052;-47
2022/02/18 01:17:18;;;;;;;5.03;2.47;;;;;;;7.72;67.33;94361.53;5044534;28;20079;-47
2022/02/18 01:19:44;;;;;;;4.90;2.42;;;;;;;7.77;67.27;94364.25;5044417;28;20919;-48
2022/02/18 01:22:11;;;;;;;5.43;2.22;;;;;;;7.76;67.73;94367.06;5042458;28;20044;-46
2022/02/18 01:24:38;;;;;;;6.13;2.35;;;;;;;7.70;67.61;94379.13;5043615;28;20115;-50
2022/02/18 01:27:07;;;;;;;7.10;1.73;;;;;;;7.65;67.95;94366.03;5042464;28;20064;-46
2022/02/18 01:29:39;;;;;;;8.23;3.15;;;;;;;7.68;68.04;94359.63;5042808;28;20454;-46
2022/02/18 01:32:11;;;;;;;4.70;2.22;;;;;;;7.66;68.15;94365.81;5042216;28;20045;-47
2022/02/18 01:34:39;;;;;;;4.47;2.70;;;;;;;7.62;68.29;94371.69;5044319;28;20044;-47
2022/02/18 01:37:07;;;;;;;6.05;2.47;;;;;;;7.53;68.85;94383.41;5042222;28;20130;-48
2022/02/18 01:39:34;;;;;;;8.65;3.58;;;;;;;7.53;69.36;94386.75;5045694;28;20098;-49
2022/02/18 01:42:02;;;;;;;6.00;2.70;;;;;;;7.45;69.63;94382.69;5043401;28;20044;-48
2022/02/18 01:44:36;;;;;;;12.93;3.22;;;;;;;7.36;70.40;94399.53;5043730;28;20041;-47
2022/02/18 01:47:06;;;;;;;9.60;2.75;;;;;;;7.36;70.75;94414.31;5041676;28;20626;-47
2022/02/18 01:49:33;;;;;;;5.00;2.42;;;;;;;7.25;71.25;94397.72;5028097;28;20398;-47
2022/02/18 01:52:00;;;;;;;7.22;3.35;;;;;;;7.16;71.53;94378.31;5046092;28;20041;-48
2022/02/18 01:54:28;;;;;;;5.18;2.38;;;;;;;7.23;71.71;94415.28;5059043;28;20483;-49
2022/02/18 01:56:55;;;;;;;7.22;3.22;;;;;;;7.23;72.03;94428.22;5042319;28;20438;-47
2022/02/18 01:59:22;;;;;;;8.27;3.15;;;;;;;7.21;71.80;94428.44;5045417;28;20076;-48
2022/02/18 02:01:49;;;;;;;6.85;2.25;;;;;;;7.19;72.03;94432.28;5044786;28;20090;-47
2022/02/18 02:04:16;;;;;;;10.63;3.55;;;;;;;7.29;72.04;94440.28;5044323;28;20045;-49
2022/02/18 02:06:43;;;;;;;9.20;2.97;;;;;;;7.33;72.08;94446.66;5043424;28;20044;-48
2022/02/18 02:09:15;;;;;;;6.28;1.88;;;;;;;7.61;71.29;94442.66;5037825;28;20060;-49
2022/02/18 02:11:42;;;;;;;3.10;1.95;;;;;;;7.96;69.82;94465.28;5042598;28;20048;-48
2022/02/18 02:14:10;;;;;;;1.45;0.82;;;;;;;8.04;69.85;94452.00;5041863;28;20099;-47
2022/02/18 02:16:41;;;;;;;3.25;1.90;;;;;;;8.15;69.56;94453.81;5043406;28;20052;-47
2022/02/18 02:19:09;;;;;;;6.50;1.63;;;;;;;8.18;69.43;94458.53;5041866;28;20041;-48
2022/02/18 02:21:37;;;;;;;5.72;1.73;;;;;;;8.12;69.59;94459.47;5043859;28;20052;-47
2022/02/18 02:24:05;;;;;;;1.80;1.40;;;;;;;8.21;68.61;94478.06;5046485;28;20048;-47
2022/02/18 02:26:33;;;;;;;3.40;1.45;;;;;;;8.27;66.58;94479.75;5042233;28;20494;-47
2022/02/18 02:29:00;;;;;;;4.68;2.30;;;;;;;8.25;66.32;94489.59;5043945;28;20044;-50
2022/02/18 02:31:28;;;;;;;4.65;1.75;;;;;;;8.23;65.30;94487.22;5043151;28;20503;-49
2022/02/18 02:33:55;;;;;;;2.05;0.90;;;;;;;8.20;64.42;94482.47;5044195;28;20059;-47
2022/02/18 02:36:24;;;;;;;1.80;1.08;;;;;;;8.13;65.07;94492.16;5042527;28;20060;-48
2022/02/18 02:38:51;;;;;;;1.75;1.20;;;;;;;8.12;64.41;94494.97;5046075;28;20045;-47
2022/02/18 02:41:19;;;;;;;3.40;1.10;;;;;;;8.12;64.51;94495.78;5042787;28;20049;-47
2022/02/18 02:43:46;;;;;;;1.30;0.65;;;;;;;8.05;63.56;94495.09;5045180;28;20454;-47
2022/02/18 02:46:13;;;;;;;4.55;1.33;;;;;;;8.04;64.87;94496.09;5047519;28;20043;-51
2022/02/18 02:48:41;;;;;;;2.08;1.13;;;;;;;8.10;65.47;94510.75;5063601;28;20032;-48
2022/02/18 02:51:40;;;;;;;2.25;1.27;;;;;;;7.99;66.44;94527.06;5040106;28;20053;-47
2022/02/18 02:54:07;;;;;;;0.88;0.50;;;;;;;7.82;68.71;94537.31;5046351;28;20525;-49
2022/02/18 02:56:35;;;;;;;0.20;0.17;;;;;;;7.60;72.16;94539.59;5047447;28;20114;-48
2022/02/18 02:59:02;;;;;;;2.28;0.63;;;;;;;7.25;73.42;94522.84;5048409;28;20037;-51
2022/02/18 03:01:36;;;;;;;1.00;0.47;;;;;;;6.90;78.63;94548.53;5061638;28;20055;-50
2022/02/18 03:04:04;;;;;;;1.35;0.63;;;;;;;6.81;81.92;94555.00;5046709;28;20044;-48
2022/02/18 03:06:30;;;;;;;0.30;0.20;;;;;;;6.59;80.56;94560.56;5054681;28;20056;-47
2022/02/18 03:08:59;;;;;;;1.23;0.63;;;;;;;6.56;84.22;94581.69;5043878;28;20052;-46
2022/02/18 03:11:38;;;;;;;1.92;0.25;;;;;;;6.45;85.85;94585.75;5045830;28;20053;-48
2022/02/18 03:14:25;;;;;;;0.35;0.17;;;;;;;6.42;83.07;94598.31;5045168;28;20064;-46
2022/02/18 03:16:57;;;;;;;0.30;0.20;;;;;;;6.36;83.62;94612.09;5045510;28;20060;-51
2022/02/18 03:19:24;;;;;;;0.77;0.45;;;;;;;6.31;83.51;94621.25;5063816;28;20057;-47
2022/02/18 03:21:52;;;;;;;0.40;0.25;;;;;;;6.30;85.65;94626.63;5044428;28;20068;-48
2022/02/18 03:24:21;;;;;;;0.45;0.30;;;;;;;6.23;84.89;94618.94;5045617;28;20045;-47
2022/02/18 03:26:51;;;;;;;1.02;0.40;;;;;;;6.25;83.08;94637.63;5044566;28;20059;-50
2022/02/18 03:29:20;;;;;;;1.35;0.40;;;;;;;6.24;83.25;94646.38;5061618;28;20545;-46
2022/02/18 03:31:58;;;;;;;0.60;0.50;;;;;;;6.17;80.49;94650.78;5046960;28;20512;-47
2022/02/18 03:34:26;;;;;;;1.17;0.40;;;;;;;6.13;83.39;94647.03;5044040;28;20055;-50
2022/02/18 03:36:53;;;;;;;2.60;0.70;;;;;;;6.10;85.93;94665.53;5046514;28;20053;-46
2022/02/18 03:39:24;;;;;;;0.88;0.43;;;;;;;6.03;86.19;94664.78;5043684;28;20051;-47
2022/02/18 03:41:51;;;;;;;2.13;1.30;;;;;;;5.93;87.84;94681.50;5051059;28;20048;-48
2022/02/18 03:44:21;;;;;;;2.08;0.95;;;;;;;5.90;87.08;94681.91;5048427;28;22576;-47
2022/02/18 03:47:04;;;;;;;2.33;1.05;;;;;;;5.80;90.32;94663.47;5050545;28;20063;-47
2022/02/18 03:49:32;;;;;;;1.80;0.75;;;;;;;5.84;88.73;94662.03;5049823;28;20542;-47
2022/02/18 03:52:00;;;;;;;0.63;0.25;;;;;;;5.85;89.09;94663.66;5065639;28;20501;-51
2022/02/18 03:54:26;;;;;;;1.52;1.00;;;;;;;5.85;88.98;94668.81;5059478;28;21771;-47
2022/02/18 03:56:54;;;;;;;3.28;0.80;;;;;;;5.75;90.62;94658.09;5048591;28;20072;-47
2022/02/18 03:59:24;;;;;;;2.45;1.10;;;;;;;5.84;91.86;94677.56;5042740;28;20060;-49
2022/02/18 04:01:52;;;;;;;1.85;0.70;;;;;;;5.82;92.90;94684.72;5063106;28;20049;-46
2022/02/18 04:04:19;;;;;;;1.58;0.98;;;;;;;5.86;92.74;94701.41;5042273;28;20136;-48
2022/02/18 04:07:05;;;;;;;1.95;0.90;;;;;;;5.80;91.74;94707.41;5050963;28;20067;-48
2022/02/18 04:09:43;;;;;;;2.55;1.67;;;;;;;5.86;91.04;94711.75;5051855;28;20056;-48
2022/02/18 04:12:17;;;;;;;2.03;1.52;;;;;;;5.70;92.73;94733.66;5058960;28;20481;-47
2022/02/18 04:14:46;;;;;;;5.03;1.67;;;;;;;5.63;95.98;94732.88;5047088;28;20049;-48
2022/02/18 04:17:16;;;;;;;3.85;1.50;;;;;;;5.68;98.50;94725.31;5051474;28;21649;-48
2022/02/18 04:19:48;;;;;;;3.80;1.92;;;;;;;5.40;100.00;94717.81;5044144;28;20045;-46
2022/02/18 04:22:44;;;;;;;8.90;2.78;;;;;;;5.30;100.00;94717.44;5049426;28;20052;-46
2022/02/18 04:25:16;;;;;;;7.00;2.55;;;;;;;5.18;100.00;94709.50;5042586;28;20077;-48
2022/02/18 04:27:42;;;;;;;6.32;2.65;;;;;;;5.11;100.00;94699.19;5043487;28;20544;-47
2022/02/18 04:30:10;;;;;;;8.73;4.07;;;;;;;4.83;100.00;94646.97;5043186;28;20045;-47
2022/02/18 04:32:37;;;;;;;10.90;4.65;;;;;;;5.13;100.00;94717.84;5046761;28;20045;-47
2022/02/18 04:35:05;;;;;;;6.82;3.05;;;;;;;5.08;100.00;94704.75;5045796;28;20045;-47
2022/02/18 04:37:32;;;;;;;15.93;3.33;;;;;;;4.98;100.00;94694.00;5048515;28;20057;-46
2022/02/18 04:40:00;;;;;;;6.40;2.45;;;;;;;4.98;100.00;94704.34;5045031;28;20126;-47
2022/02/18 04:42:27;;;;;;;5.90;3.15;;;;;;;5.01;100.00;94724.59;5043839;28;20045;-48
2022/02/18 04:44:53;;;;;;;4.45;1.48;;;;;;;5.02;100.00;94715.06;5046145;28;20056;-48
2022/02/18 04:47:20;;;;;;;2.38;0.88;;;;;;;4.91;100.00;94734.50;5049546;28;20197;-49
2022/02/18 04:49:47;;;;;;;3.42;1.90;;;;;;;4.82;100.00;94735.69;5046720;28;20080;-46
2022/02/18 04:52:14;;;;;;;5.18;2.05;;;;;;;4.81;100.00;94754.75;5049530;28;20056;-49
2022/02/18 04:54:42;;;;;;;6.78;2.10;;;;;;;4.70;100.00;94744.03;5047840;28;20066;-48
2022/02/18 04:57:10;;;;;;;2.00;1.40;;;;;;;4.63;100.00;94743.22;5046356;28;20088;-47
2022/02/18 04:59:37;;;;;;;1.40;1.02;;;;;;;4.53;100.00;94742.78;5050503;28;20071;-48
2022/02/18 05:02:04;;;;;;;1.02;0.50;;;;;;;4.46;100.00;94736.81;5058885;28;20056;-47
2022/02/18 05:04:32;;;;;;;1.25;0.80;;;;;;;4.40;100.00;94753.88;5045721;28;20509;-47
2022/02/18 05:06:59;;;;;;;2.85;1.27;;;;;;;4.34;100.00;94764.94;5048505;28;20044;-48
2022/02/18 05:09:26;;;;;;;2.33;0.80;;;;;;;4.36;100.00;94771.50;5050508;28;20056;-47
2022/02/18 05:11:53;;;;;;;1.17;0.90;;;;;;;4.30;100.00;94780.00;5049204;28;20113;-47
2022/02/18 05:14:20;;;;;;;3.20;2.13;;;;;;;4.33;100.00;94779.63;5048885;28;20049;-46
2022/02/18 05:16:47;;;;;;;2.25;1.67;;;;;;;4.31;100.00;94791.91;5053867;28;20058;-47
2022/02/18 05:19:13;;;;;;;6.63;1.52;;;;;;;4.28;100.00;94789.72;5052781;28;20071;-47
2022/02/18 05:21:40;;;;;;;2.45;1.25;;;;;;;4.19;100.00;94794.25;5053771;28;20045;-46
2022/02/18 05:24:08;;;;;;;2.72;1.35;;;;;;;4.20;100.00;94805.38;5055031;28;20056;-49
2022/02/18 05:26:35;;;;;;;2.08;1.55;;;;;;;4.15;100.00;94812.88;5050872;28;20114;-48
2022/02/18 05:29:04;;;;;;;4.45;2.03;;;;;;;4.10;100.00;94820.38;5042406;28;20052;-49
2022/02/18 05:31:31;;;;;;;2.38;1.48;;;;;;;4.12;100.00;94826.13;5047826;28;20500;-46
2022/02/18 05:34:01;;;;;;;3.95;1.70;;;;;;;4.09;100.00;94829.09;5052165;28;20083;-49
2022/02/18 05:36:28;;;;;;;1.88;1.40;;;;;;;4.04;100.00;94827.09;5044415;28;20477;-49
2022/02/18 05:38:55;;;;;;;3.20;1.35;;;;;;;4.05;100.00;94838.19;5047598;28;20056;-47
2022/02/18 05:41:23;;;;;;;1.95;0.85;;;;;;;3.94;100.00;94817.13;5042660;28;20084;-48
2022/02/18 05:43:49;;;;;;;3.40;1.40;;;;;;;4.08;100.00;94858.44;5048097;28;20049;-47
2022/02/18 05:46:16;;;;;;;3.05;1.02;;;;;;;3.95;100.00;94797.31;5043426;28;20839;-47
2022/02/18 05:48:44;;;;;;;2.47;1.38;;;;;;;4.03;100.00;94835.81;5045995;28;20055;-47
2022/02/18 05:51:11;;;;;;;2.80;1.40;;;;;;;3.98;100.00;94849.28;5045256;28;20109;-49
2022/02/18 05:53:39;;;;;;;3.78;1.13;;;;;;;4.04;100.00;94852.09;5045470;28;20502;-48
2022/02/18 05:56:06;;;;;;;3.08;2.03;;;;;;;4.06;100.00;94855.25;5045658;28;20454;-47
2022/02/18 05:58:33;;;;;;;3.30;1.83;;;;;;;4.08;99.64;94859.22;5044112;28;20056;-46
2022/02/18 06:01:00;;;;;;;2.50;1.58;;;;;;;4.08;99.33;94873.91;5044730;28;20554;-50
2022/02/18 06:03:27;;;;;;;2.88;1.70;;;;;;;4.13;99.46;94876.72;5045370;28;20060;-49
2022/02/18 06:05:53;;;;;;;4.20;1.40;;;;;;;4.13;98.40;94876.72;5047054;28;20253;-48
2022/02/18 06:08:20;;;;;;;2.75;1.42;;;;;;;4.13;98.28;94884.44;5050886;28;20921;-47
2022/02/18 06:10:47;;;;;;;1.30;0.95;;;;;;;4.01;98.64;94879.81;5048206;28;20071;-48
2022/02/18 06:13:14;;;;;;;1.10;0.77;;;;;;;4.11;98.30;94883.84;5047423;28;20110;-48
2022/02/18 06:15:40;;;;;;;4.50;1.98;;;;;;;4.15;98.46;94891.00;5054751;28;20049;-48
2022/02/18 06:18:07;;;;;;;1.58;1.05;;;;;;;4.04;97.78;94880.44;5056694;28;20041;-47
2022/02/18 06:20:34;;;;;;;1.98;1.52;;;;;;;4.15;97.37;94901.31;5053324;28;20048;-47
2022/02/18 06:23:01;;;;;;;2.55;1.38;;;;;;;4.12;97.96;94906.03;5058648;28;20056;-50
2022/02/18 06:25:27;;;;;;;3.25;1.65;;;;;;;4.15;97.44;94908.25;5055169;28;20040;-47
2022/02/18 06:28:05;;;;;;;3.42;1.90;;;;;;;4.14;97.31;94906.66;5054629;28;20087;-47
2022/02/18 06:30:32;;;;;;;3.65;1.65;;;;;;;4.09;96.75;94921.88;5054345;28;20040;-47
2022/02/18 06:32:58;;;;;;;4.45;1.95;;;;;;;4.08;96.52;94928.03;5058966;28;20045;-48
2022/02/18 06:35:25;;;;;;;2.63;1.45;;;;;;;3.99;96.95;94923.00;5054828;28;20048;-47
2022/02/18 06:37:53;;;;;;;1.55;0.90;;;;;;;4.00;95.85;94924.63;5050445;28;20056;-48
2022/02/18 06:40:19;;;;;;;1.30;1.00;;;;;;;4.05;95.55;94946.44;5047697;28;20048;-48
2022/02/18 06:42:46;;;;;;;2.85;1.30;;;;;;;3.98;95.06;94926.59;5053560;28;20044;-47
2022/02/18 06:45:17;;;;;;;4.47;2.33;;;;;;;3.98;94.51;94930.91;5049234;28;20052;-50
2022/02/18 06:47:48;;;;;;;2.92;1.65;;;;;;;4.03;94.12;94933.75;5048685;28;20434;-48
2022/02/18 06:50:16;;;;;;;3.72;1.63;;;;;;;4.20;93.54;94947.16;5051299;28;20047;-46
2022/02/18 06:52:44;;;;;;;2.08;1.30;;;;;;;4.35;93.28;94958.16;5048378;28;20072;-46
2022/02/18 06:55:12;;;;;;;5.40;2.08;;;;;;;4.43;91.54;94959.00;5050025;28;20420;-47
2022/02/18 06:57:42;;;;;;;2.55;1.00;;;;;;;4.54;90.90;94966.22;5049138;28;20471;-47
2022/02/18 07:00:11;;;;;;;2.00;1.30;;;;;;;4.53;90.46;94969.78;5048296;28;20110;-48
2022/02/18 07:02:38;;;;;;;1.75;1.40;;;;;;;4.50;89.64;94985.63;5052915;28;20057;-47
2022/02/18 07:05:09;;;;;;;1.67;1.13;;;;;;;4.43;88.74;94969.31;5053053;28;20449;-48
2022/02/18 07:07:40;;;;;;;3.75;2.25;;;;;;;4.45;89.44;94975.06;5051469;28;20060;-47
2022/02/18 07:10:09;;;;;;;3.35;1.45;;;;;;;4.58;89.42;94964.84;5050978;28;20068;-48
2022/02/18 07:12:37;;;;;;;2.90;1.63;;;;;;;4.73;89.56;94960.34;5044460;28;20048;-47
2022/02/18 07:15:05;;;;;;;3.38;1.55;;;;;;;4.88;88.62;94965.41;5051418;28;20071;-51
2022/02/18 07:17:34;;;;;;;1.35;0.57;;;;;;;5.00;88.86;94975.97;5050656;28;20060;-47
2022/02/18 07:20:04;;;;;;;4.10;1.20;;;;;;;5.13;88.93;94964.88;5052056;28;20052;-47
2022/02/18 07:22:33;;;;;;;2.70;1.60;;;;;;;5.12;88.12;94938.28;5050509;28;20056;-47
2022/02/18 07:25:00;;;;;;;2.75;1.13;;;;;;;5.25;88.17;94952.22;5046645;28;20651;-47
2022/02/18 07:27:27;;;;;;;6.07;1.40;;;;;;;5.32;87.64;94942.72;5045077;28;20041;-46
2022/02/18 07:29:54;;;;;;;2.38;1.27;;;;;;;5.51;89.21;94951.47;5049194;28;20124;-47
2022/02/18 07:32:24;;;;;;;3.45;0.60;;;;;;;5.49;86.58;94928.44;5053328;28;20499;-46
2022/02/18 07:34:51;;;;;;;2.17;0.95;;;;;;;5.31;87.17;94886.88;5053678;28;20049;-50
2022/02/18 07:37:18;;;;;;;0.98;0.65;;;;;;;5.74;86.34;94941.59;5048734;28;20514;-48
2022/02/18 07:39:45;;;;;;;1.73;0.88;;;;;;;5.75;84.42;94937.22;5047606;28;20040;-49
2022/02/18 07:42:12;;;;;;;1.92;1.75;;;;;;;5.82;82.55;94947.56;5047885;28;20099;-51
2022/02/18 07:44:43;;;;;;;9.43;0.93;;;;;;;5.80;81.91;94950.34;5047306;28;20055;-48
2022/02/18 07:47:10;;;;;;;2.00;0.80;;;;;;;5.87;82.50;94940.00;5047841;28;20055;-50
2022/02/18 07:49:50;;;;;;;2.35;1.00;;;;;;;5.92;81.94;94942.78;5047159;28;20111;-48
2022/02/18 07:52:17;;;;;;;14.45;4.88;;;;;;;5.90;80.82;94950.72;5048709;28;20045;-47
2022/02/18 07:54:45;;;;;;;4.10;2.53;;;;;;;5.87;80.54;94956.31;5047588;28;20060;-48
2022/02/18 07:57:13;;;;;;;1.88;1.20;;;;;;;6.02;81.90;94976.84;5047407;28;20037;-46
2022/02/18 07:59:40;;;;;;;4.50;1.45;;;;;;;5.88;78.72;94973.41;5049950;28;20526;-48
2022/02/18 08:02:07;;;;;;;1.25;0.82;;;;;;;5.84;79.81;94961.09;5047621;28;20403;-48
2022/02/18 08:04:34;;;;;;;1.58;1.02;;;;;;;5.92;79.36;94958.28;5046169;28;20041;-46
2022/02/18 08:07:07;;;;;;;1.75;1.38;;;;;;;6.06;79.14;94964.31;5047411;28;20052;-48
2022/02/18 08:09:34;;;;;;;2.88;0.98;;;;;;;6.11;79.90;94956.75;5046804;28;20040;-48
2022/02/18 08:12:02;;;;;;;3.80;0.73;;;;;;;6.21;78.51;94957.16;5046576;28;20037;-49
2022/02/18 08:14:29;;;;;;;5.38;2.17;;;;;;;6.25;78.96;94948.00;5046555;28;20048;-49
2022/02/18 08:16:55;;;;;;;5.43;1.00;;;;;;;6.22;77.60;94958.72;5040462;28;20041;-49
2022/02/18 08:19:23;;;;;;;3.67;1.63;;;;;;;6.25;77.50;94948.00;5031796;28;20115;-47
2022/02/18 08:21:50;;;;;;;2.13;0.70;;;;;;;6.32;76.94;94948.78;5050384;28;20055;-50
2022/02/18 08:24:19;;;;;;;2.20;1.20;;;;;;;6.44;77.30;94940.38;5044969;28;20045;-47
2022/02/18 08:26:47;;;;;;;4.20;1.05;;;;;;;6.40;76.53;94944.38;5046246;28;20554;-48
2022/02/18 08:29:15;;;;;;;1.27;1.05;;;;;;;6.48;75.32;94963.09;5046525;28;20095;-47
2022/02/18 08:31:42;;;;;;;8.93;1.17;;;;;;;6.53;75.13;94949.53;5050492;28;20481;-46
2022/02/18 08:34:09;;;;;;;1.55;0.45;;;;;;;6.54;73.67;94966.66;5048041;28;20041;-48
2022/02/18 08:36:36;;;;;;;2.63;0.60;;;;;;;6.55;74.44;94952.69;5047000;28;20061;-48
2022/02/18 08:39:05;;;;;;;2.47;1.02;;;;;;;6.70;73.93;94955.88;5050097;28;20560;-47
2022/02/18 08:41:33;;;;;;;2.47;0.57;;;;;;;6.73;72.35;94943.50;5045857;28;20045;-46
2022/02/18 08:44:00;;;;;;;3.88;0.47;;;;;;;6.65;72.13;94950.50;5050454;28;20041;-47
2022/02/18 08:46:28;;;;;;;1.13;0.85;;;;;;;6.77;72.43;94955.84;5046741;28;20071;-47
2022/02/18 08:48:55;;;;;;;0.60;0.60;;;;;;;6.69;70.92;94949.09;5047424;28;20037;-47
2022/02/18 08:51:22;;;;;;;4.85;0.50;;;;;;;6.89;70.48;94940.47;5046960;28;20118;-47
2022/02/18 08:53:49;;;;;;;4.78;0.47;;;;;;;6.91;71.56;94961.78;5042817;28;20103;-48
2022/02/18 08:56:17;;;;;;;2.70;0.60;;;;;;;7.10;69.95;94969.69;5046478;28;20505;-47
2022/02/18 08:58:44;;;;;;;1.33;0.73;;;;;;;7.21;72.43;94956.09;5045254;28;20075;-49
2022/02/18 09:01:11;;;;;;;1.58;0.57;;;;;;;7.22;71.30;94960.25;5044962;28;20037;-47
2022/02/18 09:03:41;;;;;;;0.85;0.57;;;;;;;7.39;71.50;94960.59;5043740;28;20060;-48
2022/02/18 09:06:08;;;;;;;2.45;1.52;;;;;;;7.53;70.58;94969.88;5046615;28;20072;-48
2022/02/18 09:08:35;;;;;;;1.25;0.77;;;;;;;7.53;68.66;94953.53;5046948;28;20255;-47
2022/02/18 09:11:02;;;;;;;3.35;1.10;;;;;;;7.52;68.92;94967.50;5047431;28;20961;-49
2022/02/18 09:13:30;;;;;;;1.50;0.70;;;;;;;7.60;67.48;94959.47;5047200;28;20067;-48
2022/02/18 09:15:57;;;;;;;2.17;0.85;;;;;;;7.74;66.96;94976.53;5045855;28;20037;-48
2022/02/18 09:18:37;;;;;;;7.03;2.05;;;;;;;7.78;67.67;94969.94;5045891;28;20118;-48
2022/02/18 09:21:04;;;;;;;3.03;1.15;;;;;;;7.78;64.89;94987.28;5047732;28;20045;-47
2022/02/18 09:23:51;;;;;;;6.63;1.15;;;;;;;7.82;61.80;94960.72;5042397;28;20053;-48
2022/02/18 09:26:19;;;;;;;4.60;0.60;;;;;;;7.87;60.98;94956.69;5045482;28;20102;-50
2022/02/18 09:28:45;;;;;;;1.90;0.98;;;;;;;8.07;62.86;94952.16;5041512;28;20060;-49
2022/02/18 09:31:12;;;;;;;2.58;1.17;;;;;;;7.96;59.85;94964.03;5048599;28;20044;-47
2022/02/18 09:33:39;;;;;;;3.20;0.90;;;;;;;8.13;61.88;94958.31;5042694;28;20056;-54
2022/02/18 09:36:07;;;;;;;9.18;1.00;;;;;;;8.06;60.90;94937.59;5041075;28;20076;-47
2022/02/18 09:38:36;;;;;;;10.18;1.42;;;;;;;8.07;59.58;94944.38;5042577;28;20065;-51
2022/02/18 09:41:09;;;;;;;3.17;1.02;;;;;;;7.99;59.74;94931.66;5049235;28;20107;-47
2022/02/18 09:43:36;;;;;;;4.97;1.30;;;;;;;8.11;58.19;94950.72;5046281;28;20051;-48
2022/02/18 09:46:04;;;;;;;6.03;2.13;;;;;;;8.24;57.43;94942.81;5051332;28;21997;-50
2022/02/18 09:48:32;;;;;;;6.22;1.42;;;;;;;8.26;56.38;94957.41;5048781;28;20049;-48
2022/02/18 09:50:59;;;;;;;6.72;1.60;;;;;;;8.37;56.53;94967.06;5053942;28;20041;-49
2022/02/18 09:53:26;;;;;;;6.40;3.03;;;;;;;8.57;56.11;94949.56;5050027;28;20056;-47
2022/02/18 09:55:57;;;;;;;1.00;0.63;;;;;;;8.65;56.46;94981.44;5060283;28;20049;-47
2022/02/18 09:58:24;;;;;;;3.53;0.80;;;;;;;8.68;54.65;94965.41;5049380;28;20041;-50
2022/02/18 10:00:56;;;;;;;3.33;0.88;;;;;;;8.93;53.20;94973.16;5048162;28;20064;-52
2022/02/18 10:03:22;;;;;;;1.98;1.08;;;;;;;8.82;50.55;94961.69;5045894;28;20111;-47
2022/02/18 10:05:49;;;;;;;2.08;1.50;;;;;;;8.91;50.28;94976.00;5049016;28;20056;-47
2022/02/18 10:08:22;;;;;;;4.53;0.57;;;;;;;8.78;50.76;94939.75;5045896;28;20041;-47
2022/02/18 10:11:07;;;;;;;3.70;1.23;;;;;;;8.69;51.51;94941.84;5048929;28;20057;-48
2022/02/18 10:13:35;;;;;;;;;;;;;;;8.82;50.82;94951.28;5051521;28;20051;-50
2022/02/18 10:16:33;;;;;;;0.80;0.52;;;;;;;8.85;51.17;94935.28;5043895;28;19994;-47
2022/02/18 10:19:08;;;;;;;2.08;0.65;;;;;;;9.15;50.53;94934.53;5041782;28;22503;-48
2022/02/18 10:21:39;;;;;;;6.93;0.60;;;;;;;9.40;48.75;94937.03;5043297;28;20131;-50
2022/02/18 10:24:14;;;;;;;6.22;0.60;;;;;;;9.27;47.07;94927.56;5041672;28;20076;-50
2022/02/18 10:26:44;;;;;;;3.88;1.40;;;;;;;9.47;46.54;94931.72;5044231;28;20107;-47
2022/02/18 10:29:22;;;;;;;1.65;0.50;;;;;;;9.48;45.12;94954.13;5039552;28;20048;-47
2022/02/18 10:32:13;;;;;;;4.40;0.80;;;;;;;9.42;45.74;94934.19;5042387;28;20038;-47
2022/02/18 10:34:56;;;;;;;3.80;1.60;;;;;;;9.69;44.88;94934.63;5042247;28;20049;-51
2022/02/18 10:37:27;;;;;;;4.10;1.75;;;;;;;9.63;43.93;94925.88;5041350;28;20487;-49
2022/02/18 10:40:13;;;;;;;2.85;1.35;;;;;;;9.63;44.79;94923.28;5040628;28;20037;-50
2022/02/18 10:42:44;;;;;;;1.60;1.00;;;;;;;9.70;44.61;94923.97;5041116;28;20071;-48
2022/02/18 10:45:29;;;;;;;1.35;0.63;;;;;;;9.86;43.61;94924.38;5040889;28;20525;-47
2022/02/18 10:48:11;;;;;;;3.03;1.05;;;;;;;9.79;43.45;94928.88;5044990;28;20137;-48
2022/02/18 10:50:39;;;;;;;2.08;0.93;;;;;;;9.77;42.68;94936.91;5042870;28;20049;-47
2022/02/18 10:53:17;;;;;;;1.75;1.00;;;;;;;9.93;43.41;94958.88;5042530;28;20060;-51
2022/02/18 10:55:54;;;;;;;2.00;0.70;;;;;;;9.68;43.73;94928.63;5042781;28;20095;-49
2022/02/18 10:58:26;;;;;;;3.55;1.40;;;;;;;9.74;44.13;94909.53;5043826;28;20045;-48
2022/02/18 11:01:27;;;;;;;2.88;1.48;;;;;;;9.96;45.40;94919.41;5044876;28;20037;-49
2022/02/18 11:04:01;;;;;;;9.23;1.30;;;;;;;9.95;43.82;94913.41;5043376;28;20072;-47
2022/02/18 11:06:33;;;;;;;2.70;1.40;;;;;;;9.96;43.13;94898.59;5044269;28;20090;-50
2022/02/18 11:09:11;;;;;;;18.58;2.63;;;;;;;9.93;42.64;94909.44;5038774;28;20053;-48
2022/02/18 11:11:45;;;;;;;4.40;0.55;;;;;;;10.26;42.30;94908.09;5048394;28;20619;-48
2022/02/18 11:14:18;;;;;;;0.88;0.40;;;;;;;10.21;41.86;94900.19;5049064;28;20056;-52
2022/02/18 11:16:55;;;;;;;2.75;0.82;;;;;;;10.19;41.86;94897.00;5055587;28;20457;-49
2022/02/18 11:19:23;;;;;;;6.90;1.50;;;;;;;10.41;42.04;94903.28;5047320;28;20065;-49
2022/02/18 11:22:11;;;;;;;1.73;0.40;;;;;;;10.35;42.00;94911.97;5048149;28;20103;-49
2022/02/18 11:24:42;;;;;;;3.53;0.85;;;;;;;10.26;40.61;94898.50;5049436;28;20114;-50
2022/02/18 11:27:09;;;;;;;1.30;0.40;;;;;;;10.55;40.54;94916.03;5048542;28;20135;-51
2022/02/18 11:29:38;;;;;;;2.47;0.90;;;;;;;10.39;40.85;94917.53;5047985;28;20423;-51
2022/02/18 11:32:27;;;;;;;7.45;2.88;;;;;;;10.57;40.61;94893.16;5048185;28;20051;-49
2022/02/18 11:35:24;;;;;;;9.15;3.13;;;;;;;10.81;39.91;94920.78;5045614;28;20168;-48
2022/02/18 11:38:08;;;;;;;7.30;1.67;;;;;;;10.79;38.23;94927.25;5058353;28;20060;-52
2022/02/18 11:41:12;;;;;;;10.73;3.53;;;;;;;11.13;39.15;94933.41;5045456;28;20044;-49
2022/02/18 11:43:48;;;;;;;4.45;0.90;;;;;;;11.35;39.07;94935.38;5043118;28;20635;-47
2022/02/18 11:46:25;;;;;;;3.28;2.05;;;;;;;11.10;37.55;94931.25;5048700;28;20816;-49
2022/02/18 11:48:56;;;;;;;5.97;0.98;;;;;;;10.96;39.08;94932.53;5046582;28;20060;-49
2022/02/18 11:51:26;;;;;;;5.05;1.15;;;;;;;10.68;38.22;94905.41;5047311;28;20043;-53